createdAt,value
2018-03-30T00:00:44.094Z,4.69
2018-03-30T00:03:12.385Z,4.72
2018-03-30T00:05:41.099Z,4.65
2018-03-30T00:08:09.524Z,4.77
2018-03-30T00:10:44.144Z,4.63
2018-03-30T00:13:13.951Z,4.45
2018-03-30T00:15:42.410Z,4.17
2018-03-30T00:18:11.521Z,4.29
2018-03-30T00:20:39.870Z,4.25
2018-03-30T00:23:08.212Z,4.27
2018-03-30T00:25:36.538Z,4.39
2018-03-30T00:28:04.889Z,4.23
2018-03-30T00:30:33.538Z,4.33
2018-03-30T00:33:01.927Z,4.28
2018-03-30T00:35:30.376Z,4.23
2018-03-30T00:37:59.099Z,4.44
2018-03-30T00:40:27.436Z,4.40
2018-03-30T00:42:56.946Z,4.43
2018-03-30T00:45:27.090Z,4.43
2018-03-30T00:47:55.461Z,4.36
2018-03-30T00:50:24.635Z,4.26
2018-03-30T00:52:53.041Z,4.35
2018-03-30T00:55:21.367Z,4.26
2018-03-30T00:57:50.182Z,4.32
2018-03-30T01:00:18.482Z,4.19
2018-03-30T01:02:47.571Z,4.13
2018-03-30T01:05:15.925Z,4.14
2018-03-30T01:07:44.243Z,4.19
2018-03-30T01:10:13.375Z,4.02
2018-03-30T01:12:41.703Z,3.98
2018-03-30T01:15:10.018Z,4.05
2018-03-30T01:17:38.345Z,4.09
2018-03-30T01:20:06.873Z,3.84
2018-03-30T01:22:35.213Z,3.98
2018-03-30T01:25:03.540Z,3.96
2018-03-30T01:27:31.872Z,3.94
2018-03-30T01:30:00.200Z,3.89
2018-03-30T01:32:29.333Z,3.83
2018-03-30T01:34:57.725Z,3.72
2018-03-30T01:37:26.821Z,3.64
2018-03-30T01:39:55.752Z,3.48
2018-03-30T01:42:24.372Z,3.32
2018-03-30T01:44:52.878Z,3.27
2018-03-30T01:47:21.195Z,3.20
2018-03-30T01:49:49.578Z,3.08
2018-03-30T01:52:17.922Z,2.98
2018-03-30T01:54:46.268Z,2.95
2018-03-30T01:57:14.623Z,2.88
2018-03-30T01:59:42.949Z,2.96
2018-03-30T02:02:11.282Z,3.09
2018-03-30T02:04:39.741Z,3.01
2018-03-30T02:07:08.848Z,3.07
2018-03-30T02:09:37.231Z,3.14
2018-03-30T02:12:05.710Z,3.19
2018-03-30T02:14:34.056Z,3.14
2018-03-30T02:17:03.200Z,3.14
2018-03-30T02:19:31.550Z,3.19
2018-03-30T02:22:00.758Z,3.19
2018-03-30T02:24:29.139Z,3.18
2018-03-30T02:26:57.886Z,3.23
2018-03-30T02:29:26.256Z,3.18
2018-03-30T02:31:54.586Z,3.05
2018-03-30T02:34:22.961Z,3.15
2018-03-30T02:36:52.123Z,3.22
2018-03-30T02:39:20.511Z,3.31
2018-03-30T02:41:48.867Z,3.19
2018-03-30T02:44:17.280Z,3.28
2018-03-30T02:46:46.374Z,3.28
2018-03-30T02:49:15.864Z,3.31
2018-03-30T02:51:44.266Z,3.29
2018-03-30T02:54:12.629Z,3.16
2018-03-30T02:56:41.074Z,3.31
2018-03-30T02:59:09.487Z,3.31
2018-03-30T03:01:37.912Z,3.22
2018-03-30T03:04:06.349Z,2.81
2018-03-30T03:06:34.762Z,2.83
2018-03-30T03:09:03.107Z,2.90
2018-03-30T03:11:32.031Z,2.92
2018-03-30T03:14:01.222Z,2.87
2018-03-30T03:16:29.676Z,2.94
2018-03-30T03:18:58.158Z,2.84
2018-03-30T03:21:26.608Z,2.99
2018-03-30T03:23:55.121Z,2.91
2018-03-30T03:26:23.544Z,3.03
2018-03-30T03:28:51.929Z,2.85
2018-03-30T03:31:20.267Z,3.02
2018-03-30T03:33:48.971Z,2.99
2018-03-30T03:36:17.368Z,2.96
2018-03-30T03:38:45.780Z,3.06
2018-03-30T03:41:14.363Z,3.10
2018-03-30T03:43:42.687Z,2.99
2018-03-30T03:46:11.908Z,2.85
2018-03-30T03:48:40.338Z,2.77
2018-03-30T03:51:09.455Z,2.75
2018-03-30T03:53:37.863Z,2.72
2018-03-30T03:56:06.513Z,2.76
2018-03-30T03:58:34.842Z,2.81
2018-03-30T04:01:03.218Z,2.77
2018-03-30T04:03:31.578Z,2.83
2018-03-30T04:06:00.718Z,2.90
2018-03-30T04:08:29.102Z,2.97
2018-03-30T04:10:57.491Z,3.03
2018-03-30T04:13:25.812Z,3.00
2018-03-30T04:15:54.884Z,2.97
2018-03-30T04:18:23.565Z,2.96
2018-03-30T04:20:51.900Z,2.85
2018-03-30T04:23:20.248Z,3.07
2018-03-30T04:25:49.375Z,3.11
2018-03-30T04:28:17.690Z,3.17
2018-03-30T04:30:46.058Z,3.18
2018-03-30T04:33:14.466Z,3.24
2018-03-30T04:35:42.823Z,3.28
2018-03-30T04:38:11.163Z,3.30
2018-03-30T04:40:39.584Z,3.24
2018-03-30T04:43:08.308Z,3.28
2018-03-30T04:45:37.429Z,3.17
2018-03-30T04:48:05.794Z,3.19
2018-03-30T04:50:34.165Z,3.22
2018-03-30T04:53:03.371Z,3.11
2018-03-30T04:55:31.703Z,3.18
2018-03-30T04:58:00.014Z,3.23
2018-03-30T05:00:29.251Z,3.18
2018-03-30T05:02:57.689Z,3.07
2018-03-30T05:05:26.008Z,3.14
2018-03-30T05:07:54.384Z,3.16
2018-03-30T05:10:23.566Z,3.24
2018-03-30T05:12:51.890Z,3.13
2018-03-30T05:15:20.218Z,3.20
2018-03-30T05:17:48.592Z,3.33
2018-03-30T05:20:17.085Z,3.35
2018-03-30T05:22:45.424Z,3.30
2018-03-30T05:25:14.545Z,3.40
2018-03-30T05:27:43.609Z,3.45
2018-03-30T05:30:12.238Z,3.44
2018-03-30T05:32:40.696Z,3.48
2018-03-30T05:35:09.236Z,3.46
2018-03-30T05:37:37.670Z,3.42
2018-03-30T05:40:06.981Z,3.51
2018-03-30T05:42:35.453Z,3.57
2018-03-30T05:45:04.657Z,3.76
2018-03-30T05:47:34.248Z,3.82
2018-03-30T05:50:02.581Z,3.70
2018-03-30T05:52:30.960Z,3.93
2018-03-30T05:54:59.384Z,3.89
2018-03-30T05:57:28.505Z,4.12
2018-03-30T05:59:57.577Z,4.45
2018-03-30T06:02:25.944Z,4.38
2018-03-30T06:04:54.240Z,4.62
2018-03-30T06:07:22.740Z,4.77
2018-03-30T06:09:51.471Z,4.79
2018-03-30T06:12:19.857Z,4.94
2018-03-30T06:14:48.175Z,5.19
2018-03-30T06:17:16.553Z,5.43
2018-03-30T06:19:45.922Z,5.62
2018-03-30T06:22:14.422Z,5.51
2018-03-30T06:24:43.584Z,5.48
2018-03-30T06:27:11.963Z,5.82
2018-03-30T06:29:40.605Z,6.38
2018-03-30T06:32:09.948Z,6.34
2018-03-30T06:34:38.331Z,6.79
2018-03-30T06:37:07.420Z,7.17
2018-03-30T06:39:35.877Z,7.48
2018-03-30T06:42:04.201Z,7.88
2018-03-30T06:44:32.563Z,8.48
2018-03-30T06:47:01.012Z,8.43
2018-03-30T06:49:29.366Z,8.40
2018-03-30T06:51:58.544Z,7.71
2018-03-30T06:54:27.355Z,7.93
2018-03-30T06:56:55.733Z,8.25
2018-03-30T06:59:25.450Z,8.03
2018-03-30T07:01:54.742Z,8.23
2018-03-30T07:04:23.874Z,8.27
2018-03-30T07:06:52.825Z,8.53
2018-03-30T07:09:21.305Z,8.63
2018-03-30T07:11:49.687Z,8.27
2018-03-30T07:14:20.013Z,8.12
2018-03-30T07:16:48.473Z,8.24
2018-03-30T07:19:16.841Z,8.32
2018-03-30T07:21:45.324Z,7.93
2018-03-30T07:24:13.833Z,7.70
2018-03-30T07:26:42.249Z,7.43
2018-03-30T07:29:11.450Z,7.75
2018-03-30T07:31:40.325Z,7.53
2018-03-30T07:34:08.802Z,6.87
2018-03-30T07:36:37.413Z,6.84
2018-03-30T07:39:05.844Z,7.27
2018-03-30T07:41:34.256Z,7.80
2018-03-30T07:44:02.689Z,7.16
2018-03-30T07:46:31.132Z,7.19
2018-03-30T07:48:59.549Z,7.72
2018-03-30T07:51:27.904Z,7.87
2018-03-30T07:53:56.504Z,7.89
2018-03-30T07:56:24.911Z,8.24
2018-03-30T07:58:53.262Z,8.56
2018-03-30T08:01:22.092Z,8.63
2018-03-30T08:03:50.429Z,8.32
2018-03-30T08:06:19.825Z,7.80
2018-03-30T08:08:48.515Z,7.47
2018-03-30T08:11:16.895Z,7.29
2018-03-30T08:13:45.353Z,7.73
2018-03-30T08:16:13.903Z,7.48
2018-03-30T08:18:42.974Z,8.60
2018-03-30T08:21:11.372Z,8.39
2018-03-30T08:23:40.172Z,7.68
2018-03-30T08:26:09.289Z,7.64
2018-03-30T08:28:37.614Z,7.82
2018-03-30T08:31:05.952Z,8.71
2018-03-30T08:33:34.403Z,8.58
2018-03-30T08:36:02.778Z,8.70
2018-03-30T08:38:31.932Z,7.96
2018-03-30T08:41:00.282Z,8.57
2018-03-30T08:43:28.647Z,9.97
2018-03-30T08:45:57.873Z,10.23
2018-03-30T08:48:26.249Z,9.51
2018-03-30T08:50:54.570Z,8.96
2018-03-30T08:53:22.894Z,9.27
2018-03-30T08:55:51.988Z,10.04
2018-03-30T08:58:21.069Z,11.26
2018-03-30T09:00:49.472Z,12.41
2018-03-30T09:03:18.123Z,12.82
2018-03-30T09:05:46.470Z,13.88
2018-03-30T09:08:15.418Z,13.97
2018-03-30T09:10:43.785Z,13.23
2018-03-30T09:13:12.185Z,13.46
2018-03-30T09:15:40.532Z,14.31
2018-03-30T09:18:08.896Z,12.96
2018-03-30T09:20:37.227Z,13.92
2018-03-30T09:23:05.603Z,13.91
2018-03-30T09:25:34.686Z,13.97
2018-03-30T09:28:03.801Z,14.12
2018-03-30T09:30:32.591Z,15.23
2018-03-30T09:33:01.025Z,15.36
2018-03-30T09:35:29.356Z,15.64
2018-03-30T09:37:57.714Z,16.41
2018-03-30T09:40:26.796Z,15.58
2018-03-30T09:42:55.912Z,14.68
2018-03-30T09:45:24.270Z,15.03
2018-03-30T09:47:52.803Z,15.42
2018-03-30T09:50:21.131Z,13.89
2018-03-30T09:52:50.777Z,13.19
2018-03-30T09:55:19.116Z,12.82
2018-03-30T09:57:48.215Z,12.63
2018-03-30T10:00:21.361Z,12.47
2018-03-30T10:02:49.686Z,13.17
2018-03-30T10:05:18.789Z,15.05
2018-03-30T10:07:47.917Z,15.18
2018-03-30T10:10:16.274Z,15.27
2018-03-30T10:12:44.676Z,15.62
2018-03-30T10:15:13.274Z,18.33
2018-03-30T10:17:41.616Z,18.64
2018-03-30T10:20:10.694Z,18.71
2018-03-30T10:22:39.059Z,18.13
2018-03-30T10:25:07.407Z,17.74
2018-03-30T10:27:35.754Z,18.98
2018-03-30T10:30:04.873Z,20.83
2018-03-30T10:32:33.183Z,19.65
2018-03-30T10:35:01.490Z,18.78
2018-03-30T10:37:30.992Z,19.42
2018-03-30T10:39:59.359Z,18.66
2018-03-30T10:42:27.709Z,18.82
2018-03-30T10:44:56.061Z,16.66
2018-03-30T10:47:24.383Z,18.58
2018-03-30T10:49:52.947Z,18.97
2018-03-30T10:52:21.357Z,18.01
2018-03-30T10:54:49.669Z,17.74
2018-03-30T10:57:18.023Z,16.11
2018-03-30T10:59:46.459Z,14.75
2018-03-30T11:02:14.858Z,14.96
2018-03-30T11:04:43.185Z,14.39
2018-03-30T11:07:12.332Z,14.28
2018-03-30T11:09:40.666Z,13.46
2018-03-30T11:12:09.065Z,12.45
2018-03-30T11:14:37.752Z,12.41
2018-03-30T11:17:06.265Z,13.15
2018-03-30T11:19:34.638Z,14.64
2018-03-30T11:22:03.329Z,15.21
2018-03-30T11:24:31.653Z,15.86
2018-03-30T11:27:00.062Z,17.91
2018-03-30T11:29:28.413Z,18.20
2018-03-30T11:31:57.499Z,19.04
2018-03-30T11:34:26.650Z,21.09
2018-03-30T11:36:55.046Z,22.16
2018-03-30T11:39:24.164Z,22.30
2018-03-30T11:41:53.278Z,24.24
2018-03-30T11:44:22.899Z,24.94
2018-03-30T11:46:51.238Z,25.27
2018-03-30T11:49:19.556Z,24.71
2018-03-30T11:51:47.929Z,27.01
2018-03-30T11:54:16.306Z,24.84
2018-03-30T11:56:44.716Z,24.52
2018-03-30T11:59:13.215Z,24.65
2018-03-30T12:01:41.550Z,23.80
2018-03-30T12:04:10.654Z,25.14
2018-03-30T12:06:39.078Z,26.08
2018-03-30T12:09:07.437Z,26.01
2018-03-30T12:11:35.772Z,24.66
2018-03-30T12:14:04.121Z,25.49
2018-03-30T12:16:32.472Z,25.72
2018-03-30T12:19:00.805Z,25.45
2018-03-30T12:21:29.936Z,26.40
2018-03-30T12:23:58.253Z,26.07
2018-03-30T12:26:26.587Z,26.26
2018-03-30T12:28:55.239Z,23.84
2018-03-30T12:31:24.361Z,23.36
2018-03-30T12:33:52.692Z,24.48
2018-03-30T12:36:21.041Z,24.58
2018-03-30T12:38:49.384Z,23.15
2018-03-30T12:41:18.472Z,22.97
2018-03-30T12:43:47.672Z,24.45
2018-03-30T12:46:16.784Z,26.68
2018-03-30T12:48:45.165Z,25.95
2018-03-30T12:51:13.928Z,25.88
2018-03-30T12:53:42.623Z,26.72
2018-03-30T12:56:11.753Z,26.92
2018-03-30T12:58:40.090Z,26.92
2018-03-30T13:01:09.316Z,24.84
2018-03-30T13:03:37.673Z,24.51
2018-03-30T13:06:06.805Z,23.15
2018-03-30T13:08:35.165Z,23.93
2018-03-30T13:11:03.559Z,23.35
2018-03-30T13:13:31.966Z,23.87
2018-03-30T13:16:00.429Z,24.08
2018-03-30T13:18:28.778Z,22.60
2018-03-30T13:20:58.156Z,24.39
2018-03-30T13:23:26.534Z,24.92
2018-03-30T13:25:54.874Z,25.54
2018-03-30T13:28:23.294Z,24.43
2018-03-30T13:30:51.686Z,24.89
2018-03-30T13:33:20.129Z,23.99
2018-03-30T13:35:48.844Z,24.07
2018-03-30T13:38:18.713Z,24.80
2018-03-30T13:40:47.062Z,25.04
2018-03-30T13:43:16.200Z,23.88
2018-03-30T13:45:44.708Z,23.77
2018-03-30T13:48:13.055Z,24.20
2018-03-30T13:50:54.022Z,22.55
2018-03-30T13:53:29.638Z,22.76
2018-03-30T13:56:02.836Z,22.86
2018-03-30T13:58:33.454Z,22.08
2018-03-30T14:04:22.439Z,22.50
2018-03-30T14:07:13.041Z,23.17
2018-03-30T14:10:00.781Z,21.37
2018-03-30T14:12:30.531Z,21.27
2018-03-30T14:14:58.902Z,21.01
2018-03-30T14:17:37.452Z,21.57
2018-03-30T14:23:38.331Z,21.20
2018-03-30T14:26:13.134Z,22.59
2018-03-30T14:28:46.883Z,21.95
2018-03-30T14:34:17.792Z,18.68
2018-03-30T14:37:12.567Z,20.12
2018-03-30T14:39:44.649Z,20.76
2018-03-30T14:42:16.215Z,21.35
2018-03-30T14:44:46.840Z,19.39
2018-03-30T14:47:16.239Z,19.18
2018-03-30T14:49:56.016Z,19.16
2018-03-30T14:52:38.305Z,19.04
2018-03-30T14:55:13.231Z,18.49
2018-03-30T15:00:52.386Z,17.58
2018-03-30T15:03:43.280Z,17.13
2018-03-30T15:09:17.888Z,16.89
2018-03-30T15:11:57.369Z,16.56
2018-03-30T15:14:28.248Z,17.21
2018-03-30T15:20:11.824Z,16.99
2018-03-30T15:22:42.757Z,16.22
2018-03-30T15:25:17.835Z,15.24
2018-03-30T15:28:02.980Z,15.57
2018-03-30T15:30:39.345Z,15.37
2018-03-30T15:33:11.902Z,15.14
2018-03-30T15:38:40.832Z,15.05
2018-03-30T15:41:09.966Z,15.02
2018-03-30T15:43:40.023Z,14.92
2018-03-30T15:46:22.079Z,14.61
2018-03-30T15:48:50.454Z,14.65
2018-03-30T15:51:20.357Z,13.96
2018-03-30T15:53:47.975Z,13.91
2018-03-30T15:56:17.281Z,14.15
2018-03-30T15:58:45.620Z,13.98
2018-03-30T16:01:14.035Z,13.91
2018-03-30T16:03:42.410Z,14.10
2018-03-30T16:06:10.794Z,14.27
2018-03-30T16:08:39.230Z,14.16
2018-03-30T16:11:30.555Z,14.13
2018-03-30T16:13:59.428Z,13.81
2018-03-30T16:16:27.809Z,14.06
2018-03-30T16:18:56.919Z,14.13
2018-03-30T16:21:25.272Z,14.27
2018-03-30T16:23:52.862Z,13.80
2018-03-30T16:26:21.122Z,13.48
2018-03-30T16:28:49.105Z,13.50
2018-03-30T16:31:16.747Z,13.60
2018-03-30T16:33:44.315Z,13.57
2018-03-30T16:36:12.101Z,13.50
2018-03-30T16:38:39.659Z,13.29
2018-03-30T16:41:07.200Z,13.28
2018-03-30T16:43:34.771Z,13.49
2018-03-30T16:46:02.366Z,13.36
2018-03-30T16:48:29.906Z,13.48
2018-03-30T16:50:57.674Z,13.02
2018-03-30T16:53:25.241Z,12.86
2018-03-30T16:55:54.701Z,12.89
2018-03-30T16:58:22.250Z,12.68
2018-03-30T17:00:49.808Z,12.85
2018-03-30T17:03:17.381Z,12.82
2018-03-30T17:05:45.009Z,12.92
2018-03-30T17:08:12.622Z,12.87
2018-03-30T17:10:40.204Z,12.72
2018-03-30T17:13:08.356Z,12.85
2018-03-30T17:15:35.955Z,12.85
2018-03-30T17:18:03.567Z,12.73
2018-03-30T17:20:31.154Z,12.78
2018-03-30T17:22:58.711Z,12.77
2018-03-30T17:25:26.288Z,12.66
2018-03-30T17:27:53.873Z,12.68
2018-03-30T17:30:21.417Z,12.42
2018-03-30T17:32:48.978Z,12.54
2018-03-30T17:35:17.509Z,12.58
2018-03-30T17:37:45.058Z,12.40
2018-03-30T17:40:12.717Z,12.37
2018-03-30T17:42:40.306Z,12.28
2018-03-30T17:45:07.943Z,12.15
2018-03-30T17:47:36.237Z,12.21
2018-03-30T17:50:03.804Z,12.20
2018-03-30T17:52:31.349Z,11.99
2018-03-30T17:54:58.904Z,11.69
2018-03-30T17:57:26.780Z,11.83
2018-03-30T17:59:54.345Z,11.73
2018-03-30T18:02:21.922Z,11.65
2018-03-30T18:04:49.507Z,11.37
2018-03-30T18:07:17.061Z,11.33
2018-03-30T18:09:44.814Z,11.39
2018-03-30T18:12:12.527Z,11.35
2018-03-30T18:14:40.095Z,11.14
2018-03-30T18:17:08.423Z,10.86
2018-03-30T18:19:36.119Z,10.91
2018-03-30T18:22:03.756Z,10.85
2018-03-30T18:24:31.352Z,10.79
2018-03-30T18:26:59.682Z,10.63
2018-03-30T18:29:27.228Z,10.41
2018-03-30T18:31:54.766Z,10.28
2018-03-30T18:34:23.333Z,10.25
2018-03-30T18:36:51.844Z,10.32
2018-03-30T18:39:20.152Z,10.25
2018-03-30T18:41:47.963Z,10.09
2018-03-30T18:44:15.684Z,10.04
2018-03-30T18:46:43.305Z,10.13
2018-03-30T18:49:10.917Z,10.10
2018-03-30T18:51:38.479Z,10.02
2018-03-30T18:54:06.170Z,9.86
2018-03-30T18:56:34.564Z,9.71
2018-03-30T18:59:02.127Z,9.78
2018-03-30T19:01:31.069Z,9.61
2018-03-30T19:03:59.392Z,9.58
2018-03-30T19:06:27.091Z,9.32
2018-03-30T19:08:54.956Z,9.69
2018-03-30T19:11:22.545Z,9.61
2018-03-30T19:13:50.076Z,9.48
2018-03-30T19:16:17.610Z,9.50
2018-03-30T19:18:45.949Z,9.30
2018-03-30T19:21:13.468Z,9.38
2018-03-30T19:23:41.085Z,9.50
2018-03-30T19:26:08.886Z,9.31
2018-03-30T19:28:36.439Z,9.36
2018-03-30T19:31:04.012Z,9.28
2018-03-30T19:33:31.687Z,9.49
2018-03-30T19:35:59.243Z,9.37
2018-03-30T19:38:26.795Z,9.11
2018-03-30T19:40:54.367Z,9.04
2018-03-30T19:43:21.893Z,9.20
2018-03-30T19:45:50.263Z,9.06
2018-03-30T19:48:17.940Z,9.03
2018-03-30T19:50:46.330Z,8.92
2018-03-30T19:53:13.994Z,9.03
2018-03-30T19:55:41.724Z,8.87
2018-03-30T19:58:10.298Z,8.97
2018-03-30T20:00:37.853Z,9.04
2018-03-30T20:03:05.474Z,8.94
2018-03-30T20:05:33.044Z,8.91
2018-03-30T20:08:00.601Z,9.04
2018-03-30T20:10:29.001Z,8.85
2018-03-30T20:12:56.529Z,8.48
2018-03-30T20:15:24.062Z,8.62
2018-03-30T20:17:51.618Z,8.69
2018-03-30T20:20:19.936Z,8.69
2018-03-30T20:22:47.961Z,8.81
2018-03-30T20:25:15.532Z,8.71
2018-03-30T20:27:43.221Z,8.58
2018-03-30T20:30:11.064Z,8.51
2018-03-30T20:32:39.128Z,8.35
2018-03-30T20:35:06.685Z,8.56
2018-03-30T20:37:34.494Z,8.47
2018-03-30T20:40:02.135Z,8.63
2018-03-30T20:42:29.747Z,8.48
2018-03-30T20:44:57.297Z,8.45
2018-03-30T20:47:24.866Z,8.55
2018-03-30T20:49:52.492Z,8.63
2018-03-30T20:52:20.034Z,8.63
2018-03-30T20:54:47.729Z,8.81
2018-03-30T20:57:15.276Z,8.58
2018-03-30T20:59:43.133Z,8.36
2018-03-30T21:02:10.701Z,8.39
2018-03-30T21:04:38.236Z,8.58
2018-03-30T21:07:06.580Z,8.28
2018-03-30T21:09:34.213Z,8.15
2018-03-30T21:12:01.781Z,8.17
2018-03-30T21:14:29.332Z,8.38
2018-03-30T21:16:57.279Z,8.16
2018-03-30T21:19:24.857Z,8.34
2018-03-30T21:21:52.394Z,8.11
2018-03-30T21:24:20.078Z,8.20
2018-03-30T21:26:47.616Z,8.29
2018-03-30T21:29:15.961Z,8.24
2018-03-30T21:31:43.543Z,8.40
2018-03-30T21:34:11.084Z,8.31
2018-03-30T21:36:38.608Z,8.40
2018-03-30T21:39:06.450Z,8.07
2018-03-30T21:41:33.985Z,8.21
2018-03-30T21:44:02.301Z,8.09
2018-03-30T21:46:29.941Z,8.27
2018-03-30T21:48:57.566Z,8.04
2018-03-30T21:51:25.175Z,8.03
2018-03-30T21:53:52.954Z,8.05
2018-03-30T21:56:20.661Z,8.00
2018-03-30T21:58:48.204Z,7.80
2018-03-30T22:01:16.064Z,7.86
2018-03-30T22:03:43.623Z,7.78
2018-03-30T22:06:11.391Z,7.55
2018-03-30T22:08:38.968Z,7.38
2018-03-30T22:11:06.521Z,7.45
2018-03-30T22:13:34.070Z,7.56
2018-03-30T22:16:01.617Z,7.73
2018-03-30T22:18:29.437Z,7.92
2018-03-30T22:20:56.977Z,7.97
2018-03-30T22:23:24.975Z,7.98
2018-03-30T22:25:52.579Z,7.92
2018-03-30T22:28:20.786Z,7.74
2018-03-30T22:30:48.361Z,7.76
2018-03-30T22:33:16.686Z,7.55
2018-03-30T22:35:44.241Z,7.67
2018-03-30T22:38:11.824Z,7.73
2018-03-30T22:40:39.360Z,7.73
2018-03-30T22:43:07.090Z,7.77
2018-03-30T22:45:35.166Z,7.65
2018-03-30T22:48:03.462Z,7.45
2018-03-30T22:50:31.042Z,7.58
2018-03-30T22:52:59.519Z,7.60
2018-03-30T22:55:27.469Z,7.60
2018-03-30T22:57:55.013Z,7.22
2018-03-30T23:00:23.605Z,6.98
2018-03-30T23:02:51.917Z,7.14
2018-03-30T23:05:19.960Z,7.00
2018-03-30T23:07:47.838Z,7.06
2018-03-30T23:10:15.601Z,7.08
2018-03-30T23:12:43.380Z,7.01
2018-03-30T23:15:10.984Z,6.90
2018-03-30T23:17:38.515Z,6.81
2018-03-30T23:20:06.057Z,6.83
2018-03-30T23:22:34.372Z,6.74
2018-03-30T23:25:01.921Z,6.84
2018-03-30T23:27:29.463Z,7.10
2018-03-30T23:29:57.396Z,6.97
2018-03-30T23:32:25.064Z,7.06
2018-03-30T23:34:52.626Z,6.97
2018-03-30T23:37:20.182Z,6.78
2018-03-30T23:39:47.759Z,6.86
2018-03-30T23:42:15.291Z,6.74
2018-03-30T23:44:43.164Z,6.42
2018-03-30T23:47:10.726Z,6.54
2018-03-30T23:49:39.049Z,7.06
2018-03-30T23:52:06.819Z,7.05
2018-03-30T23:54:37.356Z,6.99
2018-03-30T23:57:05.880Z,6.88
2018-03-30T23:59:34.221Z,6.68
